createdAt,value
2023-05-25T00:01:24.516Z,100.00
2023-05-25T00:04:10.535Z,100.00
2023-05-25T00:06:55.951Z,100.00
2023-05-25T00:09:42.026Z,100.00
2023-05-25T00:12:27.038Z,100.00
2023-05-25T00:15:12.234Z,100.00
2023-05-25T00:17:57.597Z,100.00
2023-05-25T00:20:44.908Z,100.00
2023-05-25T00:23:30.014Z,100.00
2023-05-25T00:26:15.693Z,100.00
2023-05-25T00:29:01.165Z,100.00
2023-05-25T00:31:46.548Z,100.00
2023-05-25T00:34:31.771Z,100.00
2023-05-25T00:37:17.202Z,100.00
2023-05-25T00:40:04.256Z,100.00
2023-05-25T00:42:49.514Z,100.00
2023-05-25T00:45:34.908Z,100.00
2023-05-25T00:48:20.458Z,100.00
2023-05-25T00:51:06.282Z,100.00
2023-05-25T00:53:51.610Z,100.00
2023-05-25T00:56:40.985Z,100.00
2023-05-25T00:59:35.971Z,100.00
2023-05-25T01:02:24.438Z,100.00
2023-05-25T01:05:12.394Z,100.00
2023-05-25T01:08:02.059Z,100.00
2023-05-25T01:10:49.947Z,100.00
2023-05-25T01:13:38.272Z,100.00
2023-05-25T01:16:28.408Z,100.00
2023-05-25T01:19:14.247Z,100.00
2023-05-25T01:22:10.415Z,100.00
2023-05-25T01:25:02.285Z,100.00
2023-05-25T01:28:09.024Z,100.00
2023-05-25T01:30:56.940Z,100.00
2023-05-25T01:33:44.653Z,100.00
2023-05-25T01:36:30.149Z,100.00
2023-05-25T01:39:15.837Z,100.00
2023-05-25T01:42:01.880Z,100.00
2023-05-25T01:44:47.826Z,100.00
2023-05-25T01:47:37.398Z,100.00
2023-05-25T01:50:34.346Z,100.00
2023-05-25T01:53:23.658Z,100.00
2023-05-25T01:56:11.752Z,100.00
2023-05-25T01:58:59.300Z,100.00
2023-05-25T02:01:46.350Z,100.00
2023-05-25T02:04:31.941Z,100.00
2023-05-25T02:07:17.381Z,100.00
2023-05-25T02:10:03.409Z,100.00
2023-05-25T02:12:48.394Z,100.00
2023-05-25T02:15:34.199Z,100.00
2023-05-25T02:18:19.751Z,100.00
2023-05-25T02:21:05.155Z,100.00
2023-05-25T02:23:50.244Z,100.00
2023-05-25T02:26:36.874Z,100.00
2023-05-25T02:29:22.378Z,100.00
2023-05-25T02:32:07.896Z,100.00
2023-05-25T02:34:52.949Z,100.00
2023-05-25T02:37:39.152Z,100.00
2023-05-25T02:40:24.718Z,100.00
2023-05-25T02:43:10.111Z,100.00
2023-05-25T02:45:55.454Z,100.00
2023-05-25T02:48:42.479Z,100.00
2023-05-25T02:51:28.867Z,100.00
2023-05-25T02:54:14.135Z,100.00
2023-05-25T02:56:59.484Z,100.00
2023-05-25T02:59:44.817Z,100.00
2023-05-25T03:02:30.929Z,100.00
2023-05-25T03:05:17.780Z,100.00
2023-05-25T03:08:02.897Z,100.00
2023-05-25T03:10:48.181Z,100.00
2023-05-25T03:13:33.468Z,100.00
2023-05-25T03:16:18.925Z,100.00
2023-05-25T03:19:05.508Z,100.00
2023-05-25T03:21:51.124Z,100.00
2023-05-25T03:24:36.559Z,100.00
2023-05-25T03:27:21.896Z,100.00
2023-05-25T03:30:07.987Z,100.00
2023-05-25T03:32:53.101Z,100.00
2023-05-25T03:35:38.405Z,100.00
2023-05-25T03:38:23.735Z,100.00
2023-05-25T03:41:08.999Z,100.00
2023-05-25T03:43:54.520Z,100.00
2023-05-25T03:46:40.034Z,100.00
2023-05-25T03:49:25.749Z,100.00
2023-05-25T03:52:11.122Z,100.00
2023-05-25T03:54:56.708Z,100.00
2023-05-25T03:57:42.368Z,100.00
2023-05-25T04:00:27.879Z,100.00
2023-05-25T04:03:13.573Z,100.00
2023-05-25T04:06:00.490Z,100.00
2023-05-25T04:08:45.910Z,100.00
2023-05-25T04:11:31.260Z,100.00
2023-05-25T04:14:16.523Z,100.00
2023-05-25T04:17:01.912Z,100.00
2023-05-25T04:19:47.134Z,100.00
2023-05-25T04:22:33.481Z,100.00
2023-05-25T04:25:22.287Z,100.00
2023-05-25T04:28:08.594Z,100.00
2023-05-25T04:30:57.210Z,100.00
2023-05-25T04:33:42.752Z,100.00
2023-05-25T04:36:28.272Z,100.00
2023-05-25T04:39:13.652Z,100.00
2023-05-25T04:42:01.687Z,100.00
2023-05-25T04:44:47.584Z,100.00
2023-05-25T04:47:32.842Z,100.00
2023-05-25T04:50:18.260Z,100.00
2023-05-25T04:53:03.401Z,100.00
2023-05-25T04:55:52.022Z,100.00
2023-05-25T04:58:37.120Z,100.00
2023-05-25T05:01:22.426Z,100.00
2023-05-25T05:04:08.608Z,100.00
2023-05-25T05:06:56.115Z,100.00
2023-05-25T05:09:43.198Z,100.00
2023-05-25T05:12:28.441Z,100.00
2023-05-25T05:15:13.782Z,100.00
2023-05-25T05:17:59.484Z,100.00
2023-05-25T05:20:44.930Z,100.00
2023-05-25T05:23:29.982Z,100.00
2023-05-25T05:26:15.604Z,100.00
2023-05-25T05:29:00.863Z,100.00
2023-05-25T05:31:46.328Z,100.00
2023-05-25T05:34:31.609Z,100.00
2023-05-25T05:37:16.654Z,100.00
2023-05-25T05:40:02.072Z,100.00
2023-05-25T05:42:46.976Z,100.00
2023-05-25T05:45:32.258Z,100.00
2023-05-25T05:48:17.263Z,100.00
2023-05-25T05:51:04.448Z,100.00
2023-05-25T05:53:49.873Z,100.00
2023-05-25T05:56:35.554Z,100.00
2023-05-25T05:59:22.498Z,100.00
2023-05-25T06:02:07.788Z,100.00
2023-05-25T06:04:52.996Z,100.00
2023-05-25T06:07:38.894Z,100.00
2023-05-25T06:10:24.065Z,100.00
2023-05-25T06:13:09.490Z,100.00
2023-05-25T06:15:54.969Z,100.00
2023-05-25T06:18:40.399Z,100.00
2023-05-25T06:21:25.636Z,100.00
2023-05-25T06:24:10.905Z,100.00
2023-05-25T06:26:56.181Z,100.00
2023-05-25T06:29:41.424Z,100.00
2023-05-25T06:32:26.734Z,100.00
2023-05-25T06:35:19.595Z,100.00
2023-05-25T06:38:04.847Z,100.00
2023-05-25T06:40:49.889Z,100.00
2023-05-25T06:43:35.557Z,100.00
2023-05-25T06:46:21.656Z,100.00
2023-05-25T06:49:06.903Z,100.00
2023-05-25T06:51:52.552Z,100.00
2023-05-25T06:54:37.455Z,100.00
2023-05-25T06:57:23.713Z,100.00
2023-05-25T07:00:12.214Z,100.00
2023-05-25T07:02:57.072Z,100.00
2023-05-25T07:05:42.702Z,100.00
2023-05-25T07:08:28.236Z,100.00
2023-05-25T07:11:14.362Z,100.00
2023-05-25T07:13:59.555Z,99.84
2023-05-25T07:16:48.258Z,100.00
2023-05-25T07:19:33.646Z,100.00
2023-05-25T07:22:19.633Z,98.81
2023-05-25T07:25:05.174Z,99.49
2023-05-25T07:27:50.584Z,99.25
2023-05-25T07:30:36.533Z,98.08
2023-05-25T07:33:21.936Z,98.66
2023-05-25T07:36:07.536Z,97.51
2023-05-25T07:38:52.891Z,98.29
2023-05-25T07:41:39.019Z,97.76
2023-05-25T07:44:24.133Z,97.01
2023-05-25T07:47:11.349Z,97.42
2023-05-25T07:49:56.718Z,97.74
2023-05-25T07:52:42.457Z,96.65
2023-05-25T07:55:27.790Z,95.65
2023-05-25T07:58:13.028Z,96.17
2023-05-25T08:00:58.391Z,96.23
2023-05-25T08:03:49.723Z,96.27
2023-05-25T08:06:36.139Z,95.76
2023-05-25T08:09:21.556Z,95.14
2023-05-25T08:14:58.714Z,95.51
2023-05-25T08:17:44.433Z,95.67
2023-05-25T08:20:30.612Z,95.24
2023-05-25T08:23:16.090Z,95.12
2023-05-25T08:26:05.944Z,94.96
2023-05-25T08:28:57.058Z,96.03
2023-05-25T08:31:43.909Z,94.83
2023-05-25T08:34:29.655Z,95.57
2023-05-25T08:37:14.961Z,95.40
2023-05-25T08:40:02.457Z,94.55
2023-05-25T08:42:47.854Z,93.88
2023-05-25T08:45:35.173Z,94.94
2023-05-25T08:48:39.210Z,93.82
2023-05-25T08:51:26.421Z,93.32
2023-05-25T08:54:13.593Z,94.51
2023-05-25T08:57:38.086Z,92.88
2023-05-25T09:00:30.466Z,93.12
2023-05-25T09:03:20.085Z,92.17
2023-05-25T09:06:05.989Z,92.04
2023-05-25T09:08:51.890Z,92.84
2023-05-25T09:11:39.944Z,93.95
2023-05-25T09:14:27.507Z,92.54
2023-05-25T09:17:14.801Z,93.57
2023-05-25T09:20:00.111Z,93.00
2023-05-25T09:22:47.202Z,91.49
2023-05-25T09:25:33.800Z,93.16
2023-05-25T09:28:26.869Z,91.73
2023-05-25T09:31:13.340Z,90.19
2023-05-25T09:34:00.388Z,90.05
2023-05-25T09:36:46.266Z,91.08
2023-05-25T09:39:31.846Z,88.63
2023-05-25T09:42:17.916Z,90.83
2023-05-25T09:45:05.347Z,90.71
2023-05-25T09:47:55.926Z,90.16
2023-05-25T09:50:41.136Z,89.94
2023-05-25T09:53:26.862Z,90.44
2023-05-25T09:56:12.712Z,89.55
2023-05-25T09:58:58.466Z,87.42
2023-05-25T10:01:46.654Z,87.32
2023-05-25T10:04:31.978Z,86.70
2023-05-25T10:07:17.640Z,87.75
2023-05-25T10:10:07.667Z,88.71
2023-05-25T10:12:53.778Z,87.88
2023-05-25T10:15:43.154Z,86.76
2023-05-25T10:18:32.882Z,87.30
2023-05-25T10:21:20.550Z,88.27
2023-05-25T10:24:24.937Z,87.46
2023-05-25T10:27:26.262Z,86.38
2023-05-25T10:30:14.471Z,87.12
2023-05-25T10:33:01.813Z,87.21
2023-05-25T10:36:02.270Z,85.56
2023-05-25T10:38:55.471Z,86.51
2023-05-25T10:41:42.090Z,85.63
2023-05-25T10:44:29.165Z,86.90
2023-05-25T10:47:16.239Z,85.83
2023-05-25T10:50:03.116Z,85.58
2023-05-25T10:53:02.067Z,85.42
2023-05-25T10:55:47.347Z,85.73
2023-05-25T10:58:34.155Z,86.59
2023-05-25T11:01:19.758Z,84.82
2023-05-25T11:04:11.252Z,84.28
2023-05-25T11:07:03.092Z,83.44
2023-05-25T11:09:58.901Z,83.93
2023-05-25T11:12:46.576Z,83.52
2023-05-25T11:15:31.736Z,83.54
2023-05-25T11:18:17.100Z,82.87
2023-05-25T11:21:29.004Z,82.41
2023-05-25T11:24:16.233Z,83.52
2023-05-25T11:27:01.938Z,82.17
2023-05-25T11:29:51.087Z,82.53
2023-05-25T11:32:39.897Z,82.68
2023-05-25T11:35:26.569Z,79.99
2023-05-25T11:38:12.700Z,81.45
2023-05-25T11:40:58.181Z,80.91
2023-05-25T11:43:45.881Z,81.64
2023-05-25T11:46:33.098Z,81.21
2023-05-25T11:49:21.753Z,80.13
2023-05-25T11:52:07.509Z,80.77
2023-05-25T11:54:53.329Z,80.06
2023-05-25T11:57:39.251Z,79.49
2023-05-25T12:00:27.220Z,79.04
2023-05-25T12:03:30.202Z,78.61
2023-05-25T12:06:28.003Z,80.14
2023-05-25T12:09:13.150Z,79.51
2023-05-25T12:11:59.008Z,79.81
2023-05-25T12:14:51.899Z,79.59
2023-05-25T12:17:41.363Z,79.91
2023-05-25T12:20:27.347Z,79.50
2023-05-25T12:23:13.047Z,77.90
2023-05-25T12:26:13.878Z,77.48
2023-05-25T12:29:03.911Z,77.58
2023-05-25T12:31:49.269Z,77.67
2023-05-25T12:34:34.885Z,77.52
2023-05-25T12:37:22.329Z,78.18
2023-05-25T12:40:18.654Z,76.77
2023-05-25T12:43:04.012Z,76.14
2023-05-25T12:45:49.387Z,75.52
2023-05-25T12:48:34.729Z,74.82
2023-05-25T12:51:20.135Z,75.48
2023-05-25T12:54:05.733Z,75.40
2023-05-25T12:56:55.632Z,75.46
2023-05-25T12:59:46.258Z,75.94
2023-05-25T13:02:32.379Z,77.54
2023-05-25T13:05:28.261Z,77.00
2023-05-25T13:08:13.747Z,75.78
2023-05-25T13:10:58.903Z,75.78
2023-05-25T13:13:44.981Z,73.82
2023-05-25T13:16:33.718Z,73.87
2023-05-25T13:19:20.458Z,72.55
2023-05-25T13:22:05.657Z,74.89
2023-05-25T13:24:50.997Z,74.66
2023-05-25T13:27:37.980Z,74.91
2023-05-25T13:30:23.144Z,75.28
2023-05-25T13:33:08.512Z,75.04
2023-05-25T13:36:07.950Z,73.89
2023-05-25T13:38:53.395Z,74.92
2023-05-25T13:41:38.635Z,75.66
2023-05-25T13:44:23.933Z,75.95
2023-05-25T13:47:09.325Z,75.29
2023-05-25T13:49:54.693Z,77.11
2023-05-25T13:52:39.842Z,75.46
2023-05-25T13:55:25.204Z,74.82
2023-05-25T13:58:10.624Z,73.99
2023-05-25T14:00:56.064Z,74.47
2023-05-25T14:03:41.714Z,74.00
2023-05-25T14:06:27.076Z,73.81
2023-05-25T14:09:13.577Z,74.33
2023-05-25T14:11:59.093Z,74.67
2023-05-25T14:14:44.387Z,75.20
2023-05-25T14:17:29.821Z,75.60
2023-05-25T14:20:25.201Z,75.56
2023-05-25T14:23:12.759Z,75.29
2023-05-25T14:25:59.699Z,73.00
2023-05-25T14:28:44.929Z,74.20
2023-05-25T14:31:30.248Z,74.58
2023-05-25T14:34:15.495Z,74.68
2023-05-25T14:37:00.907Z,75.18
2023-05-25T14:39:46.120Z,75.02
2023-05-25T14:42:31.333Z,74.95
2023-05-25T14:45:16.579Z,75.11
2023-05-25T14:48:15.313Z,73.30
2023-05-25T14:51:02.836Z,74.13
2023-05-25T14:53:48.263Z,74.10
2023-05-25T14:56:33.943Z,73.80
2023-05-25T14:59:19.493Z,73.44
2023-05-25T15:02:05.175Z,73.17
2023-05-25T15:04:50.644Z,73.51
2023-05-25T15:07:35.972Z,74.58
2023-05-25T15:10:21.254Z,72.88
2023-05-25T15:13:06.456Z,73.36
2023-05-25T15:15:57.144Z,74.37
2023-05-25T15:18:43.571Z,74.32
2023-05-25T15:21:28.597Z,74.60
2023-05-25T15:24:16.698Z,75.29
2023-05-25T15:27:01.896Z,74.95
2023-05-25T15:29:47.247Z,76.25
2023-05-25T15:32:32.821Z,76.54
2023-05-25T15:35:18.251Z,76.25
2023-05-25T15:38:03.569Z,75.22
2023-05-25T15:40:48.893Z,76.06
2023-05-25T15:43:34.052Z,77.42
2023-05-25T15:46:19.496Z,77.60
2023-05-25T15:49:10.846Z,77.62
2023-05-25T15:51:56.371Z,77.61
2023-05-25T15:54:41.789Z,78.32
2023-05-25T15:57:27.161Z,78.39
2023-05-25T16:00:12.898Z,79.19
2023-05-25T16:02:58.357Z,80.67
2023-05-25T16:05:44.021Z,80.40
2023-05-25T16:08:29.678Z,80.68
2023-05-25T16:11:15.118Z,80.27
2023-05-25T16:14:00.490Z,81.17
2023-05-25T16:16:46.048Z,80.16
2023-05-25T16:19:31.232Z,80.49
2023-05-25T16:22:16.433Z,80.83
2023-05-25T16:25:01.653Z,80.63
2023-05-25T16:27:46.911Z,81.17
2023-05-25T16:30:32.346Z,81.49
2023-05-25T16:33:17.421Z,81.15
2023-05-25T16:36:02.694Z,80.79
2023-05-25T16:38:47.920Z,80.04
2023-05-25T16:41:33.629Z,80.00
2023-05-25T16:44:18.764Z,80.71
2023-05-25T16:47:04.135Z,80.98
2023-05-25T16:49:49.354Z,81.40
2023-05-25T16:52:34.602Z,81.93
2023-05-25T16:55:19.846Z,81.96
2023-05-25T16:58:05.133Z,82.63
2023-05-25T17:00:51.672Z,82.41
2023-05-25T17:03:37.338Z,82.43
2023-05-25T17:06:22.782Z,83.09
2023-05-25T17:09:09.151Z,83.29
2023-05-25T17:11:54.282Z,83.33
2023-05-25T17:14:39.594Z,82.98
2023-05-25T17:17:28.090Z,83.23
2023-05-25T17:20:13.357Z,82.95
2023-05-25T17:22:58.887Z,83.98
2023-05-25T17:25:45.025Z,84.38
2023-05-25T17:28:32.844Z,84.36
2023-05-25T17:31:18.424Z,84.67
2023-05-25T17:34:03.981Z,84.55
2023-05-25T17:36:48.952Z,84.94
2023-05-25T17:39:34.293Z,85.04
2023-05-25T17:42:19.708Z,85.38
2023-05-25T17:45:10.663Z,85.32
2023-05-25T17:47:56.353Z,85.82
2023-05-25T17:50:41.768Z,86.55
2023-05-25T17:53:27.196Z,87.01
2023-05-25T17:56:12.843Z,87.92
2023-05-25T17:58:57.896Z,88.24
2023-05-25T18:01:43.511Z,88.85
2023-05-25T18:04:28.994Z,89.49
2023-05-25T18:07:14.434Z,89.73
2023-05-25T18:09:59.986Z,89.71
2023-05-25T18:12:49.232Z,90.24
2023-05-25T18:15:34.698Z,90.66
2023-05-25T18:18:23.237Z,90.60
2023-05-25T18:21:08.474Z,90.47
2023-05-25T18:23:53.868Z,90.88
2023-05-25T18:26:41.668Z,90.89
2023-05-25T18:29:26.931Z,91.28
2023-05-25T18:32:12.267Z,91.31
2023-05-25T18:34:57.826Z,91.42
2023-05-25T18:37:43.146Z,91.93
2023-05-25T18:40:28.201Z,91.83
2023-05-25T18:43:13.593Z,91.46
2023-05-25T18:45:59.290Z,91.55
2023-05-25T18:48:44.594Z,91.73
2023-05-25T18:51:29.708Z,91.67
2023-05-25T18:54:15.478Z,91.81
2023-05-25T18:57:01.504Z,92.21
2023-05-25T18:59:46.933Z,92.41
2023-05-25T19:02:32.010Z,92.58
2023-05-25T19:05:18.566Z,92.93
2023-05-25T19:08:04.137Z,92.72
2023-05-25T19:10:49.478Z,92.69
2023-05-25T19:13:34.627Z,92.99
2023-05-25T19:16:19.867Z,92.58
2023-05-25T19:19:05.130Z,92.89
2023-05-25T19:21:50.912Z,93.32
2023-05-25T19:24:41.028Z,93.20
2023-05-25T19:27:27.648Z,93.53
2023-05-25T19:30:13.139Z,93.17
2023-05-25T19:32:58.656Z,93.46
2023-05-25T19:35:44.159Z,93.77
2023-05-25T19:38:40.239Z,94.20
2023-05-25T19:41:26.234Z,94.28
2023-05-25T19:44:11.660Z,94.71
2023-05-25T19:46:56.814Z,94.70
2023-05-25T19:49:42.828Z,94.44
2023-05-25T19:52:28.326Z,94.44
2023-05-25T19:55:13.728Z,94.40
2023-05-25T19:57:59.041Z,94.35
2023-05-25T20:00:44.588Z,94.29
2023-05-25T20:03:30.234Z,93.88
2023-05-25T20:06:15.840Z,93.43
2023-05-25T20:09:01.203Z,93.13
2023-05-25T20:11:46.459Z,93.29
2023-05-25T20:14:33.673Z,93.41
2023-05-25T20:17:19.044Z,93.38
2023-05-25T20:20:05.362Z,93.01
2023-05-25T20:22:50.843Z,92.72
2023-05-25T20:25:36.203Z,92.69
2023-05-25T20:28:21.303Z,92.24
2023-05-25T20:31:06.803Z,92.75
2023-05-25T20:33:51.998Z,92.87
2023-05-25T20:36:37.480Z,92.69
2023-05-25T20:39:22.618Z,92.85
2023-05-25T20:42:07.909Z,92.87
2023-05-25T20:44:53.199Z,92.91
2023-05-25T20:47:41.730Z,93.16
2023-05-25T20:50:27.706Z,93.08
2023-05-25T20:53:12.687Z,92.55
2023-05-25T20:55:58.480Z,92.21
2023-05-25T20:58:43.894Z,92.49
2023-05-25T21:01:29.665Z,92.75
2023-05-25T21:04:15.222Z,92.73
2023-05-25T21:07:00.824Z,93.15
2023-05-25T21:09:45.983Z,93.18
2023-05-25T21:12:31.572Z,93.27
2023-05-25T21:15:16.899Z,93.30
2023-05-25T21:18:03.651Z,93.14
2023-05-25T21:20:49.304Z,92.97
2023-05-25T21:23:34.663Z,92.72
2023-05-25T21:26:21.388Z,92.76
2023-05-25T21:29:07.771Z,92.66
2023-05-25T21:31:53.314Z,92.50
2023-05-25T21:34:38.527Z,92.42
2023-05-25T21:37:24.692Z,92.50
2023-05-25T21:40:10.492Z,92.74
2023-05-25T21:42:56.062Z,92.81
2023-05-25T21:45:41.559Z,92.85
2023-05-25T21:48:26.878Z,93.29
2023-05-25T21:51:12.190Z,93.79
2023-05-25T21:53:58.842Z,93.62
2023-05-25T21:56:43.981Z,93.24
2023-05-25T21:59:29.456Z,93.09
2023-05-25T22:02:14.809Z,93.48
2023-05-25T22:05:00.082Z,93.89
2023-05-25T22:07:45.954Z,94.33
2023-05-25T22:10:33.614Z,94.73
2023-05-25T22:13:18.890Z,95.25
2023-05-25T22:16:04.120Z,95.31
2023-05-25T22:18:49.345Z,95.60
2023-05-25T22:21:34.754Z,95.57
2023-05-25T22:24:19.998Z,95.54
2023-05-25T22:27:06.638Z,96.02
2023-05-25T22:29:51.818Z,96.54
2023-05-25T22:32:37.082Z,97.37
2023-05-25T22:35:22.205Z,98.40
2023-05-25T22:38:07.483Z,98.31
2023-05-25T22:40:52.850Z,98.48
2023-05-25T22:43:38.015Z,98.71
2023-05-25T22:46:23.431Z,98.43
2023-05-25T22:49:08.637Z,98.35
2023-05-25T22:51:54.161Z,98.35
2023-05-25T22:54:39.881Z,98.29
2023-05-25T22:57:25.458Z,97.91
2023-05-25T23:00:11.269Z,97.73
2023-05-25T23:02:57.600Z,97.64
2023-05-25T23:05:42.812Z,97.90
2023-05-25T23:08:28.225Z,98.38
2023-05-25T23:11:13.468Z,99.24
2023-05-25T23:14:00.733Z,99.69
2023-05-25T23:16:48.658Z,99.79
2023-05-25T23:19:34.252Z,99.63
2023-05-25T23:22:19.675Z,99.46
2023-05-25T23:25:05.513Z,99.26
2023-05-25T23:27:50.699Z,98.98
2023-05-25T23:30:36.005Z,98.72
2023-05-25T23:33:22.126Z,98.94
2023-05-25T23:36:07.449Z,99.50
2023-05-25T23:38:52.999Z,99.68
2023-05-25T23:41:38.156Z,99.85
2023-05-25T23:44:23.517Z,100.00
2023-05-25T23:47:09.509Z,100.00
2023-05-25T23:49:54.530Z,100.00
2023-05-25T23:52:40.153Z,100.00
2023-05-25T23:55:25.136Z,100.00
2023-05-25T23:58:10.543Z,100.00
